sensor_id;sensor_type;location;lat;lon;timestamp;pressure;altitude;pressure_sealevel;temperature;humidity
68807;BME280;55800;54.272;18.558;2023-04-01T00:01:51;99149.88;;;7.06;69.45
68807;BME280;55800;54.272;18.558;2023-04-01T00:04:21;99154.41;;;7.04;69.43
68807;BME280;55800;54.272;18.558;2023-04-01T00:06:51;99146.28;;;7.07;69.72
68807;BME280;55800;54.272;18.558;2023-04-01T00:09:20;99149.94;;;7.05;70.10
68807;BME280;55800;54.272;18.558;2023-04-01T00:11:50;99151.97;;;7.00;70.01
68807;BME280;55800;54.272;18.558;2023-04-01T00:14:19;99162.53;;;7.01;69.10
68807;BME280;55800;54.272;18.558;2023-04-01T00:16:48;99166.03;;;7.02;69.46
68807;BME280;55800;54.272;18.558;2023-04-01T00:19:18;99165.66;;;6.92;70.07
68807;BME280;55800;54.272;18.558;2023-04-01T00:21:48;99168.22;;;6.94;69.53
68807;BME280;55800;54.272;18.558;2023-04-01T00:24:17;99155.81;;;6.94;69.35
68807;BME280;55800;54.272;18.558;2023-04-01T00:26:47;99170.88;;;6.94;69.17
68807;BME280;55800;54.272;18.558;2023-04-01T00:29:16;99164.97;;;6.89;69.85
68807;BME280;55800;54.272;18.558;2023-04-01T00:31:46;99170.28;;;6.89;68.93
68807;BME280;55800;54.272;18.558;2023-04-01T00:34:16;99171.19;;;6.88;68.66
68807;BME280;55800;54.272;18.558;2023-04-01T00:36:45;99171.38;;;6.85;69.76
68807;BME280;55800;54.272;18.558;2023-04-01T00:39:16;99166.09;;;6.83;68.51
68807;BME280;55800;54.272;18.558;2023-04-01T00:41:45;99163.97;;;6.73;69.38
68807;BME280;55800;54.272;18.558;2023-04-01T00:44:18;99172.47;;;6.62;70.11
68807;BME280;55800;54.272;18.558;2023-04-01T00:46:48;99167.94;;;6.64;69.21
68807;BME280;55800;54.272;18.558;2023-04-01T00:49:20;99164.59;;;6.61;69.50
68807;BME280;55800;54.272;18.558;2023-04-01T00:51:54;99160.84;;;6.65;68.76
68807;BME280;55800;54.272;18.558;2023-04-01T00:54:26;99159.38;;;6.59;69.18
68807;BME280;55800;54.272;18.558;2023-04-01T00:56:59;99157.94;;;6.52;69.59
68807;BME280;55800;54.272;18.558;2023-04-01T00:59:31;99158.31;;;6.45;70.16
68807;BME280;55800;54.272;18.558;2023-04-01T01:02:04;99167.84;;;6.49;69.69
68807;BME280;55800;54.272;18.558;2023-04-01T01:04:36;99159.72;;;6.52;69.08
68807;BME280;55800;54.272;18.558;2023-04-01T01:07:13;99156.59;;;6.44;68.94
68807;BME280;55800;54.272;18.558;2023-04-01T01:09:54;99165.34;;;6.46;68.28
68807;BME280;55800;54.272;18.558;2023-04-01T01:12:29;99161.25;;;6.39;70.03
68807;BME280;55800;54.272;18.558;2023-04-01T01:15:06;99163.28;;;6.34;69.48
68807;BME280;55800;54.272;18.558;2023-04-01T01:17:45;99156.22;;;6.32;69.13
68807;BME280;55800;54.272;18.558;2023-04-01T01:26:46;99174.97;;;6.29;68.35
68807;BME280;55800;54.272;18.558;2023-04-01T01:29:40;99176.84;;;6.27;68.26
68807;BME280;55800;54.272;18.558;2023-04-01T01:32:20;99181.19;;;6.28;67.91
68807;BME280;55800;54.272;18.558;2023-04-01T01:35:07;99179.50;;;6.27;67.91
68807;BME280;55800;54.272;18.558;2023-04-01T01:37:39;99177.84;;;6.25;68.04
68807;BME280;55800;54.272;18.558;2023-04-01T01:40:12;99180.53;;;6.23;68.03
68807;BME280;55800;54.272;18.558;2023-04-01T01:42:45;99181.41;;;6.24;68.09
68807;BME280;55800;54.272;18.558;2023-04-01T01:45:19;99183.19;;;6.23;68.74
68807;BME280;55800;54.272;18.558;2023-04-01T01:47:51;99184.06;;;6.24;68.01
68807;BME280;55800;54.272;18.558;2023-04-01T01:50:23;99176.09;;;6.24;68.44
68807;BME280;55800;54.272;18.558;2023-04-01T01:53:02;99183.28;;;6.22;68.21
68807;BME280;55800;54.272;18.558;2023-04-01T01:55:33;99182.41;;;6.21;69.35
68807;BME280;55800;54.272;18.558;2023-04-01T01:58:09;99169.31;;;6.18;69.09
68807;BME280;55800;54.272;18.558;2023-04-01T02:00:44;99178.84;;;6.22;69.07
68807;BME280;55800;54.272;18.558;2023-04-01T02:03:16;99179.84;;;6.20;68.32
68807;BME280;55800;54.272;18.558;2023-04-01T02:05:49;99180.84;;;6.17;68.79
68807;BME280;55800;54.272;18.558;2023-04-01T02:08:22;99183.28;;;6.22;69.07
68807;BME280;55800;54.272;18.558;2023-04-01T02:10:57;99179.84;;;6.20;68.45
68807;BME280;55800;54.272;18.558;2023-04-01T02:13:37;99184.16;;;6.22;68.33
68807;BME280;55800;54.272;18.558;2023-04-01T02:16:13;99184.16;;;6.22;68.10
68807;BME280;55800;54.272;18.558;2023-04-01T02:18:45;99186.94;;;6.19;68.68
68807;BME280;55800;54.272;18.558;2023-04-01T02:21:20;99193.03;;;6.21;68.67
68807;BME280;55800;54.272;18.558;2023-04-01T02:23:53;99187.88;;;6.18;68.63
68807;BME280;55800;54.272;18.558;2023-04-01T02:26:26;99189.75;;;6.16;69.04
68807;BME280;55800;54.272;18.558;2023-04-01T02:28:56;99194.09;;;6.17;68.74
68807;BME280;55800;54.272;18.558;2023-04-01T02:31:28;99190.38;;;6.21;68.44
68807;BME280;55800;54.272;18.558;2023-04-01T02:33:58;99188.50;;;6.23;68.11
68807;BME280;55800;54.272;18.558;2023-04-01T02:36:29;99189.31;;;6.25;68.20
68807;BME280;55800;54.272;18.558;2023-04-01T02:38:59;99188.59;;;6.22;68.51
68807;BME280;55800;54.272;18.558;2023-04-01T02:41:30;99189.81;;;6.15;69.72
68807;BME280;55800;54.272;18.558;2023-04-01T02:43:59;99197.69;;;6.16;68.96
68807;BME280;55800;54.272;18.558;2023-04-01T02:46:29;99198.31;;;6.21;68.74
68807;BME280;55800;54.272;18.558;2023-04-01T02:48:58;99195.69;;;6.21;68.34
68807;BME280;55800;54.272;18.558;2023-04-01T02:51:29;99195.75;;;6.20;68.67
68807;BME280;55800;54.272;18.558;2023-04-01T02:53:59;99203.63;;;6.21;68.88
68807;BME280;55800;54.272;18.558;2023-04-01T02:56:29;99208.16;;;6.19;68.85
68807;BME280;55800;54.272;18.558;2023-04-01T02:58:58;99214.53;;;6.15;68.88
68807;BME280;55800;54.272;18.558;2023-04-01T03:01:28;99198.63;;;6.15;69.51
68807;BME280;55800;54.272;18.558;2023-04-01T03:03:57;99211.88;;;6.15;69.96
68807;BME280;55800;54.272;18.558;2023-04-01T03:06:28;99211.25;;;6.10;70.33
68807;BME280;55800;54.272;18.558;2023-04-01T03:08:58;99208.72;;;6.07;70.35
68807;BME280;55800;54.272;18.558;2023-04-01T03:11:27;99220.91;;;6.11;69.46
68807;BME280;55800;54.272;18.558;2023-04-01T03:13:56;99221.13;;;6.07;69.65
68807;BME280;55800;54.272;18.558;2023-04-01T03:16:26;99216.91;;;6.03;70.48
68807;BME280;55800;54.272;18.558;2023-04-01T03:18:55;99218.44;;;6.08;70.30
68807;BME280;55800;54.272;18.558;2023-04-01T03:21:28;99225.72;;;6.03;70.54
68807;BME280;55800;54.272;18.558;2023-04-01T03:23:57;99230.16;;;6.03;69.31
68807;BME280;55800;54.272;18.558;2023-04-01T03:26:29;99225.84;;;6.00;69.45
68807;BME280;55800;54.272;18.558;2023-04-01T03:28:59;99230.38;;;5.98;69.68
68807;BME280;55800;54.272;18.558;2023-04-01T03:31:28;99227.00;;;5.95;70.82
68807;BME280;55800;54.272;18.558;2023-04-01T03:33:58;99224.44;;;5.93;69.75
68807;BME280;55800;54.272;18.558;2023-04-01T03:36:29;99224.34;;;5.95;69.20
68807;BME280;55800;54.272;18.558;2023-04-01T03:38:58;99232.22;;;5.96;69.15
68807;BME280;55800;54.272;18.558;2023-04-01T03:41:37;99230.56;;;5.94;69.07
68807;BME280;55800;54.272;18.558;2023-04-01T03:44:06;99220.81;;;5.94;69.15
68807;BME280;55800;54.272;18.558;2023-04-01T03:46:35;99228.94;;;5.91;69.06
68807;BME280;55800;54.272;18.558;2023-04-01T03:49:07;99230.00;;;5.87;70.50
68807;BME280;55800;54.272;18.558;2023-04-01T03:51:42;99232.72;;;5.86;69.78
68807;BME280;55800;54.272;18.558;2023-04-01T03:54:11;99237.22;;;5.84;69.97
68807;BME280;55800;54.272;18.558;2023-04-01T03:56:41;99229.38;;;5.81;69.68
68807;BME280;55800;54.272;18.558;2023-04-01T03:59:11;99231.25;;;5.79;70.40
68807;BME280;55800;54.272;18.558;2023-04-01T04:01:41;99229.38;;;5.81;69.96
68807;BME280;55800;54.272;18.558;2023-04-01T04:04:12;99238.41;;;5.77;70.29
68807;BME280;55800;54.272;18.558;2023-04-01T04:06:44;99235.81;;;5.75;70.35
68807;BME280;55800;54.272;18.558;2023-04-01T04:09:13;99242.97;;;5.73;70.06
68807;BME280;55800;54.272;18.558;2023-04-01T04:11:43;99253.38;;;5.78;70.25
68807;BME280;55800;54.272;18.558;2023-04-01T04:14:12;99255.16;;;5.77;70.57
68807;BME280;55800;54.272;18.558;2023-04-01T04:16:41;99250.00;;;5.74;70.39
68807;BME280;55800;54.272;18.558;2023-04-01T04:19:11;99250.00;;;5.74;70.24
68807;BME280;55800;54.272;18.558;2023-04-01T04:21:41;99253.56;;;5.73;70.57
68807;BME280;55800;54.272;18.558;2023-04-01T04:24:11;99258.00;;;5.73;70.60
68807;BME280;55800;54.272;18.558;2023-04-01T04:26:58;99252.94;;;5.68;70.64
68807;BME280;55800;54.272;18.558;2023-04-01T04:29:27;99265.41;;;5.66;70.99
68807;BME280;55800;54.272;18.558;2023-04-01T04:32:00;99264.25;;;5.72;69.92
68807;BME280;55800;54.272;18.558;2023-04-01T04:34:30;99258.88;;;5.73;69.47
68807;BME280;55800;54.272;18.558;2023-04-01T04:36:59;99252.00;;;5.69;70.29
68807;BME280;55800;54.272;18.558;2023-04-01T04:39:34;99266.91;;;5.72;71.00
68807;BME280;55800;54.272;18.558;2023-04-01T04:42:04;99266.03;;;5.71;70.98
68807;BME280;55800;54.272;18.558;2023-04-01T04:44:34;99271.53;;;5.67;70.69
68807;BME280;55800;54.272;18.558;2023-04-01T04:47:03;99268.06;;;5.66;71.01
68807;BME280;55800;54.272;18.558;2023-04-01T04:49:32;99267.91;;;5.69;70.71
68807;BME280;55800;54.272;18.558;2023-04-01T04:52:06;99274.94;;;5.70;70.37
68807;BME280;55800;54.272;18.558;2023-04-01T04:54:37;99271.28;;;5.73;71.13
68807;BME280;55800;54.272;18.558;2023-04-01T04:57:07;99277.53;;;5.72;70.84
68807;BME280;55800;54.272;18.558;2023-04-01T04:59:43;99277.63;;;5.69;71.37
68807;BME280;55800;54.272;18.558;2023-04-01T05:02:18;99270.63;;;5.68;70.51
68807;BME280;55800;54.272;18.558;2023-04-01T05:04:47;99276.81;;;5.68;71.60
68807;BME280;55800;54.272;18.558;2023-04-01T05:07:17;99279.31;;;5.71;70.54
68807;BME280;55800;54.272;18.558;2023-04-01T05:09:48;99290.84;;;5.70;71.19
68807;BME280;55800;54.272;18.558;2023-04-01T05:12:18;99284.59;;;5.71;70.99
68807;BME280;55800;54.272;18.558;2023-04-01T05:14:56;99292.56;;;5.71;70.12
68807;BME280;55800;54.272;18.558;2023-04-01T05:17:25;99288.13;;;5.72;70.74
68807;BME280;55800;54.272;18.558;2023-04-01T05:19:55;99297.06;;;5.69;71.41
68807;BME280;55800;54.272;18.558;2023-04-01T05:22:24;99292.72;;;5.68;70.49
68807;BME280;55800;54.272;18.558;2023-04-01T05:24:55;99295.41;;;5.67;70.88
68807;BME280;55800;54.272;18.558;2023-04-01T05:27:25;99300.69;;;5.67;71.36
68807;BME280;55800;54.272;18.558;2023-04-01T05:29:54;99298.72;;;5.72;72.03
68807;BME280;55800;54.272;18.558;2023-04-01T05:32:41;99305.53;;;5.77;71.63
68807;BME280;55800;54.272;18.558;2023-04-01T05:35:11;99307.41;;;5.75;71.60
68807;BME280;55800;54.272;18.558;2023-04-01T05:37:40;99299.31;;;5.78;71.79
68807;BME280;55800;54.272;18.558;2023-04-01T05:40:11;99302.97;;;5.76;71.85
68807;BME280;55800;54.272;18.558;2023-04-01T05:42:41;99310.06;;;5.75;70.89
68807;BME280;55800;54.272;18.558;2023-04-01T05:45:11;99296.59;;;5.80;71.22
68807;BME280;55800;54.272;18.558;2023-04-01T05:48:09;99310.00;;;5.77;71.32
68807;BME280;55800;54.272;18.558;2023-04-01T05:50:41;99317.69;;;5.83;72.80
68807;BME280;55800;54.272;18.558;2023-04-01T05:53:12;99322.84;;;5.87;72.46
68807;BME280;55800;54.272;18.558;2023-04-01T05:55:44;99321.91;;;5.88;72.83
68807;BME280;55800;54.272;18.558;2023-04-01T05:58:14;99320.19;;;5.87;71.72
68807;BME280;55800;54.272;18.558;2023-04-01T06:00:47;99332.66;;;5.85;71.19
68807;BME280;55800;54.272;18.558;2023-04-01T06:03:29;99330.91;;;5.84;72.73
68807;BME280;55800;54.272;18.558;2023-04-01T06:05:58;99339.66;;;5.86;72.07
68807;BME280;55800;54.272;18.558;2023-04-01T06:08:31;99323.63;;;5.89;72.17
68807;BME280;55800;54.272;18.558;2023-04-01T06:11:12;99335.94;;;5.90;72.69
68807;BME280;55800;54.272;18.558;2023-04-01T06:14:14;99347.44;;;5.91;73.25
68807;BME280;55800;54.272;18.558;2023-04-01T06:17:02;99341.13;;;5.93;72.75
68807;BME280;55800;54.272;18.558;2023-04-01T06:19:42;99345.50;;;5.94;72.58
68807;BME280;55800;54.272;18.558;2023-04-01T06:22:35;99342.13;;;5.91;72.74
68807;BME280;55800;54.272;18.558;2023-04-01T06:25:42;99345.84;;;5.87;74.11
68807;BME280;55800;54.272;18.558;2023-04-01T06:28:46;99354.78;;;5.84;73.74
68807;BME280;55800;54.272;18.558;2023-04-01T06:31:32;99355.66;;;5.83;74.35
68807;BME280;55800;54.272;18.558;2023-04-01T06:34:20;99361.81;;;5.85;73.69
68807;BME280;55800;54.272;18.558;2023-04-01T06:37:40;99366.06;;;5.89;73.40
68807;BME280;55800;54.272;18.558;2023-04-01T06:43:18;99368.56;;;5.92;72.43
68807;BME280;55800;54.272;18.558;2023-04-01T06:46:17;99371.22;;;5.92;72.69
68807;BME280;55800;54.272;18.558;2023-04-01T06:49:35;99373.34;;;5.84;72.29
68807;BME280;55800;54.272;18.558;2023-04-01T06:52:34;99384.09;;;5.80;73.88
68807;BME280;55800;54.272;18.558;2023-04-01T06:55:29;99387.47;;;5.83;73.40
68807;BME280;55800;54.272;18.558;2023-04-01T06:58:24;99382.97;;;5.87;73.51
68807;BME280;55800;54.272;18.558;2023-04-01T07:00:58;99392.00;;;5.81;74.14
68807;BME280;55800;54.272;18.558;2023-04-01T07:03:33;99389.34;;;5.81;73.25
68807;BME280;55800;54.272;18.558;2023-04-01T07:06:08;99394.78;;;5.78;75.06
68807;BME280;55800;54.272;18.558;2023-04-01T07:08:49;99389.34;;;5.81;74.76
68807;BME280;55800;54.272;18.558;2023-04-01T07:11:24;99400.41;;;5.92;73.37
68807;BME280;55800;54.272;18.558;2023-04-01T07:14:24;99399.59;;;5.90;74.16
68807;BME280;55800;54.272;18.558;2023-04-01T07:16:59;99398.81;;;5.88;73.86
68807;BME280;55800;54.272;18.558;2023-04-01T07:19:36;99406.75;;;5.88;74.37
68807;BME280;55800;54.272;18.558;2023-04-01T07:22:17;99404.91;;;5.90;73.82
68807;BME280;55800;54.272;18.558;2023-04-01T07:25:13;99424.41;;;5.89;73.97
68807;BME280;55800;54.272;18.558;2023-04-01T07:27:47;99424.19;;;5.94;73.54
68807;BME280;55800;54.272;18.558;2023-04-01T07:30:19;99424.94;;;5.97;73.95
68807;BME280;55800;54.272;18.558;2023-04-01T07:32:50;99423.97;;;6.00;73.97
68807;BME280;55800;54.272;18.558;2023-04-01T07:35:30;99422.91;;;6.04;73.86
68807;BME280;55800;54.272;18.558;2023-04-01T07:38:11;99424.69;;;6.03;73.99
68807;BME280;55800;54.272;18.558;2023-04-01T07:40:50;99429.19;;;6.01;73.72
68807;BME280;55800;54.272;18.558;2023-04-01T07:43:45;99424.63;;;6.05;74.16
68807;BME280;55800;54.272;18.558;2023-04-01T07:46:45;99431.47;;;6.10;73.71
68807;BME280;55800;54.272;18.558;2023-04-01T07:49:22;99435.97;;;6.08;73.85
68807;BME280;55800;54.272;18.558;2023-04-01T07:52:01;99438.38;;;6.14;73.66
68807;BME280;55800;54.272;18.558;2023-04-01T07:54:42;99446.13;;;6.19;73.40
68807;BME280;55800;54.272;18.558;2023-04-01T07:57:15;99446.19;;;6.17;73.67
68807;BME280;55800;54.272;18.558;2023-04-01T07:59:58;99454.94;;;6.19;73.46
68807;BME280;55800;54.272;18.558;2023-04-01T08:02:53;99453.34;;;6.15;74.55
68807;BME280;55800;54.272;18.558;2023-04-01T08:05:28;99459.13;;;6.25;73.31
68807;BME280;55800;54.272;18.558;2023-04-01T08:08:10;99459.25;;;6.22;74.12
68807;BME280;55800;54.272;18.558;2023-04-01T08:11:09;99464.72;;;6.19;74.30
68807;BME280;55800;54.272;18.558;2023-04-01T08:14:07;99468.19;;;6.19;74.05
68807;BME280;55800;54.272;18.558;2023-04-01T08:17:04;99469.94;;;6.20;73.38
68807;BME280;55800;54.272;18.558;2023-04-01T08:19:51;99481.34;;;6.22;73.46
68807;BME280;55800;54.272;18.558;2023-04-01T08:22:33;99480.47;;;6.22;73.60
68807;BME280;55800;54.272;18.558;2023-04-01T08:25:17;99488.53;;;6.20;73.17
68807;BME280;55800;54.272;18.558;2023-04-01T08:27:51;99486.78;;;6.19;73.58
68807;BME280;55800;54.272;18.558;2023-04-01T08:30:25;99483.31;;;6.17;73.70
68807;BME280;55800;54.272;18.558;2023-04-01T08:32:58;99486.06;;;6.16;73.48
68807;BME280;55800;54.272;18.558;2023-04-01T08:35:34;99493.81;;;6.20;73.29
68807;BME280;55800;54.272;18.558;2023-04-01T08:38:14;99496.34;;;6.23;73.14
68807;BME280;55800;54.272;18.558;2023-04-01T08:44:24;99504.81;;;6.11;73.35
68807;BME280;55800;54.272;18.558;2023-04-01T08:50:38;99505.88;;;6.07;73.50
68807;BME280;55800;54.272;18.558;2023-04-01T08:53:46;99502.34;;;6.07;73.93
68807;BME280;55800;54.272;18.558;2023-04-01T08:56:27;99510.38;;;6.05;73.72
68807;BME280;55800;54.272;18.558;2023-04-01T08:59:31;99513.84;;;6.07;73.07
68807;BME280;55800;54.272;18.558;2023-04-01T09:08:31;99532.66;;;6.01;73.33
68807;BME280;55800;54.272;18.558;2023-04-01T09:11:11;99530.88;;;6.02;72.69
68807;BME280;55800;54.272;18.558;2023-04-01T09:14:36;99535.31;;;6.01;72.77
68807;BME280;55800;54.272;18.558;2023-04-01T09:17:51;99533.34;;;6.06;73.27
68807;BME280;55800;54.272;18.558;2023-04-01T09:20:46;99530.69;;;6.06;73.27
68807;BME280;55800;54.272;18.558;2023-04-01T09:23:27;99534.34;;;6.04;73.07
68807;BME280;55800;54.272;18.558;2023-04-01T09:26:16;99545.66;;;6.07;73.21
68807;BME280;55800;54.272;18.558;2023-04-01T09:28:58;99550.09;;;6.07;73.19
68807;BME280;55800;54.272;18.558;2023-04-01T09:31:50;99551.84;;;6.08;72.99
68807;BME280;55800;54.272;18.558;2023-04-01T09:34:57;99566.03;;;6.07;73.17
68807;BME280;55800;54.272;18.558;2023-04-01T09:37:35;99555.38;;;6.08;72.96
68807;BME280;55800;54.272;18.558;2023-04-01T09:40:17;99562.53;;;6.06;72.98
68807;BME280;55800;54.272;18.558;2023-04-01T09:43:06;99572.19;;;6.07;73.03
68807;BME280;55800;54.272;18.558;2023-04-01T09:45:51;99577.63;;;6.04;72.81
68807;BME280;55800;54.272;18.558;2023-04-01T09:48:42;99570.84;;;5.97;73.74
68807;BME280;55800;54.272;18.558;2023-04-01T09:51:27;99568.06;;;6.00;72.86
68807;BME280;55800;54.272;18.558;2023-04-01T09:54:13;99574.22;;;6.01;73.20
68807;BME280;55800;54.272;18.558;2023-04-01T10:00:25;99589.00;;;6.08;72.53
68807;BME280;55800;54.272;18.558;2023-04-01T10:06:51;99595.38;;;6.02;72.99
68807;BME280;55800;54.272;18.558;2023-04-01T10:16:03;99612.00;;;6.07;73.00
68807;BME280;55800;54.272;18.558;2023-04-01T10:19:05;99620.44;;;5.95;73.11
68807;BME280;55800;54.272;18.558;2023-04-01T10:25:38;99620.22;;;6.01;72.62
68807;BME280;55800;54.272;18.558;2023-04-01T10:35:26;99629.47;;;5.91;73.12
68807;BME280;55800;54.272;18.558;2023-04-01T10:38:22;99635.50;;;5.95;73.15
68807;BME280;55800;54.272;18.558;2023-04-01T10:45:10;99637.41;;;5.91;73.24
68807;BME280;55800;54.272;18.558;2023-04-01T10:51:19;99648.03;;;5.91;73.24
68807;BME280;55800;54.272;18.558;2023-04-01T10:54:30;99645.47;;;5.88;73.05
68807;BME280;55800;54.272;18.558;2023-04-01T10:57:41;99650.53;;;5.94;72.46
68807;BME280;55800;54.272;18.558;2023-04-01T11:00:58;99657.94;;;5.86;73.54
68807;BME280;55800;54.272;18.558;2023-04-01T11:07:50;99659.31;;;5.96;72.65
68807;BME280;55800;54.272;18.558;2023-04-01T11:11:00;99660.25;;;5.95;72.80
68807;BME280;55800;54.272;18.558;2023-04-01T11:17:17;99678.91;;;5.92;73.19
68807;BME280;55800;54.272;18.558;2023-04-01T11:20:20;99683.41;;;5.90;72.86
68807;BME280;55800;54.272;18.558;2023-04-01T11:23:21;99686.88;;;5.92;72.34
68807;BME280;55800;54.272;18.558;2023-04-01T11:26:02;99685.97;;;5.93;72.69
68807;BME280;55800;54.272;18.558;2023-04-01T11:29:24;99689.41;;;5.95;72.39
68807;BME280;55800;54.272;18.558;2023-04-01T11:32:25;99699.00;;;5.99;72.41
68807;BME280;55800;54.272;18.558;2023-04-01T11:35:05;99677.06;;;5.94;72.78
68807;BME280;55800;54.272;18.558;2023-04-01T11:37:44;99674.66;;;5.88;73.13
68807;BME280;55800;54.272;18.558;2023-04-01T11:40:41;99698.34;;;5.93;72.66
68807;BME280;55800;54.272;18.558;2023-04-01T11:43:39;99700.03;;;5.95;72.58
68807;BME280;55800;54.272;18.558;2023-04-01T11:46:41;99695.78;;;5.91;72.96
68807;BME280;55800;54.272;18.558;2023-04-01T11:49:25;99701.75;;;5.96;72.92
68807;BME280;55800;54.272;18.558;2023-04-01T11:52:25;99697.66;;;5.88;72.94
68807;BME280;55800;54.272;18.558;2023-04-01T11:58:17;99700.38;;;5.86;73.20
68807;BME280;55800;54.272;18.558;2023-04-01T12:01:09;99700.94;;;5.94;72.57
68807;BME280;55800;54.272;18.558;2023-04-01T12:04:00;99704.56;;;5.92;72.89
68807;BME280;55800;54.272;18.558;2023-04-01T12:06:42;99708.91;;;5.94;72.49
68807;BME280;55800;54.272;18.558;2023-04-01T12:09:20;99710.66;;;5.95;72.50
68807;BME280;55800;54.272;18.558;2023-04-01T12:12:06;99713.22;;;5.97;72.24
68807;BME280;55800;54.272;18.558;2023-04-01T12:14:43;99713.97;;;6.00;72.46
68807;BME280;55800;54.272;18.558;2023-04-01T12:17:26;99714.09;;;5.97;72.14
68807;BME280;55800;54.272;18.558;2023-04-01T12:20:13;99718.47;;;5.98;72.25
68807;BME280;55800;54.272;18.558;2023-04-01T12:22:57;99713.41;;;5.92;72.80
68807;BME280;55800;54.272;18.558;2023-04-01T12:28:46;99735.56;;;5.91;72.87
68807;BME280;55800;54.272;18.558;2023-04-01T12:31:27;99728.09;;;6.01;72.11
68807;BME280;55800;54.272;18.558;2023-04-01T12:34:23;99735.19;;;6.00;72.24
68807;BME280;55800;54.272;18.558;2023-04-01T12:37:06;99743.28;;;5.97;72.25
68807;BME280;55800;54.272;18.558;2023-04-01T12:40:05;99728.41;;;5.93;72.08
68807;BME280;55800;54.272;18.558;2023-04-01T12:42:57;99742.56;;;5.92;71.97
68807;BME280;55800;54.272;18.558;2023-04-01T12:45:30;99739.94;;;5.92;72.26
68807;BME280;55800;54.272;18.558;2023-04-01T12:51:40;99758.72;;;5.86;72.01
68807;BME280;55800;54.272;18.558;2023-04-01T13:00:20;99775.88;;;5.76;71.94
68807;BME280;55800;54.272;18.558;2023-04-01T13:03:05;99776.91;;;5.72;72.13
68807;BME280;55800;54.272;18.558;2023-04-01T13:05:56;99783.91;;;5.73;71.77
68807;BME280;55800;54.272;18.558;2023-04-01T13:08:38;99778.94;;;5.64;72.44
68807;BME280;55800;54.272;18.558;2023-04-01T13:11:20;99790.38;;;5.66;72.04
68807;BME280;55800;54.272;18.558;2023-04-01T13:14:17;99793.66;;;5.73;71.65
68807;BME280;55800;54.272;18.558;2023-04-01T13:17:06;99798.34;;;5.66;71.77
68807;BME280;55800;54.272;18.558;2023-04-01T13:19:44;99807.41;;;5.59;71.96
68807;BME280;55800;54.272;18.558;2023-04-01T13:22:49;99806.66;;;5.56;72.42
68807;BME280;55800;54.272;18.558;2023-04-01T13:25:32;99802.31;;;5.53;71.90
68807;BME280;55800;54.272;18.558;2023-04-01T13:28:12;99809.41;;;5.52;72.07
68807;BME280;55800;54.272;18.558;2023-04-01T13:30:48;99818.31;;;5.50;72.42
68807;BME280;55800;54.272;18.558;2023-04-01T13:33:25;99816.38;;;5.55;71.64
68807;BME280;55800;54.272;18.558;2023-04-01T13:36:08;99814.91;;;5.46;71.83
68807;BME280;55800;54.272;18.558;2023-04-01T13:38:50;99815.94;;;5.42;72.03
68807;BME280;55800;54.272;18.558;2023-04-01T13:41:38;99822.22;;;5.40;71.83
68807;BME280;55800;54.272;18.558;2023-04-01T13:44:16;99813.38;;;5.39;71.95
68807;BME280;55800;54.272;18.558;2023-04-01T13:56:13;99847.31;;;5.28;72.10
68807;BME280;55800;54.272;18.558;2023-04-01T13:59:16;99843.81;;;5.28;72.66
68807;BME280;55800;54.272;18.558;2023-04-01T14:02:03;99848.66;;;5.15;72.66
68807;BME280;55800;54.272;18.558;2023-04-01T14:04:59;99851.38;;;5.12;72.70
68807;BME280;55800;54.272;18.558;2023-04-01T14:07:49;99854.25;;;5.05;72.67
68807;BME280;55800;54.272;18.558;2023-04-01T14:10:23;99856.00;;;5.06;72.44
68807;BME280;55800;54.272;18.558;2023-04-01T14:13:00;99862.13;;;5.08;72.89
68807;BME280;55800;54.272;18.558;2023-04-01T14:15:55;99861.25;;;5.07;73.11
68807;BME280;55800;54.272;18.558;2023-04-01T14:18:51;99858.72;;;5.04;73.08
68807;BME280;55800;54.272;18.558;2023-04-01T14:21:35;99867.50;;;5.05;72.76
68807;BME280;55800;54.272;18.558;2023-04-01T14:24:23;99879.81;;;5.07;72.44
68807;BME280;55800;54.272;18.558;2023-04-01T14:27:34;99878.09;;;5.06;72.51
68807;BME280;55800;54.272;18.558;2023-04-01T14:33:23;99879.19;;;4.99;72.80
68807;BME280;55800;54.272;18.558;2023-04-01T14:36:15;99882.91;;;4.94;72.72
68807;BME280;55800;54.272;18.558;2023-04-01T14:38:59;99873.31;;;4.90;73.25
68807;BME280;55800;54.272;18.558;2023-04-01T14:41:39;99888.38;;;4.88;73.39
68807;BME280;55800;54.272;18.558;2023-04-01T14:44:43;99887.38;;;4.92;72.80
68807;BME280;55800;54.272;18.558;2023-04-01T14:47:46;99888.59;;;4.80;73.16
68807;BME280;55800;54.272;18.558;2023-04-01T14:50:19;99885.91;;;4.82;72.96
68807;BME280;55800;54.272;18.558;2023-04-01T14:52:57;99893.69;;;4.86;72.83
68807;BME280;55800;54.272;18.558;2023-04-01T14:55:31;99903.53;;;4.83;73.27
68807;BME280;55800;54.272;18.558;2023-04-01T14:58:10;99905.09;;;4.90;72.67
68807;BME280;55800;54.272;18.558;2023-04-01T15:00:48;99907.75;;;4.90;72.77
68807;BME280;55800;54.272;18.558;2023-04-01T15:03:24;99915.84;;;4.84;72.68
68807;BME280;55800;54.272;18.558;2023-04-01T15:06:11;99914.31;;;4.77;73.19
68807;BME280;55800;54.272;18.558;2023-04-01T15:08:47;99925.66;;;4.80;72.91
68807;BME280;55800;54.272;18.558;2023-04-01T15:11:30;99923.75;;;4.85;72.24
68807;BME280;55800;54.272;18.558;2023-04-01T15:14:29;99932.72;;;4.81;73.15
68807;BME280;55800;54.272;18.558;2023-04-01T15:17:20;99940.69;;;4.80;72.74
68807;BME280;55800;54.272;18.558;2023-04-01T15:20:08;99939.84;;;4.78;72.63
68807;BME280;55800;54.272;18.558;2023-04-01T15:22:59;99936.44;;;4.74;73.02
68807;BME280;55800;54.272;18.558;2023-04-01T15:25:43;99945.53;;;4.65;73.04
68807;BME280;55800;54.272;18.558;2023-04-01T15:28:23;99947.16;;;4.69;72.71
68807;BME280;55800;54.272;18.558;2023-04-01T15:30:59;99955.88;;;4.73;72.46
68807;BME280;55800;54.272;18.558;2023-04-01T15:33:43;99955.81;;;4.76;72.19
68807;BME280;55800;54.272;18.558;2023-04-01T15:36:27;99963.81;;;4.74;72.62
68807;BME280;55800;54.272;18.558;2023-04-01T15:39:09;99961.28;;;4.70;72.66
68807;BME280;55800;54.272;18.558;2023-04-01T15:41:48;99970.28;;;4.63;73.16